Flight Track Log - Related Links

Times and Time Zones

All times are in EDT time to prevent confusion due to time zone crossing. See the AAL1459 flight status page for this flight to view local times or setup timezone preferences in your user account.

Time Position Orientation Groundspeed Altitude Reporting Facility
EDT Latitude Longitude Course Direction KTS MPH feet Rate Location/Type
Thu 07:59:25 PM 42.0000 -87.9333 261° West 176 203 1,700  Level Chicago TRACON
Thu 08:00:19 PM 42.0333 -87.9833 312° West 216 249 2,900 2,105 Climbing Chicago TRACON
Thu 08:01:19 PM 42.1000 -88.0333 331° Northwest 269 310 5,700 2,694 Climbing Chicago TRACON
Thu 08:01:57 PM 42.1289 -88.0597 326° Northwest 261 300 7,300 2,673 Climbing Chicago Center
Thu 08:03:00 PM 42.1767 -88.1333 311° West 282 325 10,200 2,640 Climbing Chicago Center
Thu 08:04:00 PM 41.8784 -88.7934 261° West  Level FlightAware Approximate
Thu 08:04:02 PM 42.1364 -88.2533 246° West 295 339 12,800  Level Chicago Center
Thu 08:05:04 PM 42.0958 -88.3572 242° Southwest 312 359 13,800 581 Climbing Chicago Center
Thu 08:06:06 PM 42.0514 -88.4750 243° Southwest 348 400 14,000 1,517 Climbing Chicago Center
Thu 08:12:23 PM 41.8660 -89.3230 243° Southwest 423 487 24,900 1,644 Climbing FlightAware ADS-B
Thu 08:13:02 PM 41.8610 -89.4170 266° West 423 487 25,400 1,091 Climbing FlightAware ADS-B
Thu 08:13:51 PM 41.8520 -89.5420 265° West 430 495 26,500 2,000 Climbing FlightAware ADS-B
Thu 08:14:23 PM 41.8460 -89.6480 266° West 437 503 28,100 2,000 Climbing FlightAware ADS-B
Thu 08:14:54 PM 41.8410 -89.7330 266° West 444 511 28,600 1,083 Climbing FlightAware ADS-B
Thu 08:15:35 PM 41.8330 -89.8510 265° West 450 518 29,400 1,521 Climbing FlightAware ADS-B
Thu 08:16:05 PM 41.8260 -89.9700 266° West 453 521 30,400 1,765 Climbing FlightAware ADS-B
Thu 08:16:43 PM 41.8200 -90.0750 266° West 447 514 31,400 1,600 Climbing FlightAware ADS-B
Thu 08:17:20 PM 41.8130 -90.1760 265° West 443 510 32,400 1,397 Climbing FlightAware ADS-B
Thu 08:17:56 PM 41.8070 -90.2690 265° West 440 506 33,100 1,268 Climbing FlightAware ADS-B
Thu 08:18:31 PM 41.8010 -90.3700 265° West 439 505 33,900 1,200 Climbing FlightAware ADS-B
Thu 08:19:01 PM 41.7950 -90.4470 264° West 439 505 34,400 957 Climbing FlightAware ADS-B
Thu 08:19:40 PM 41.7880 -90.5500 265° West 438 504 35,000 1,014 Climbing FlightAware ADS-B
Thu 08:20:12 PM 41.7820 -90.6390 265° West 435 501 35,600 870 Climbing FlightAware ADS-B
Thu 08:20:49 PM 41.7760 -90.7360 265° West 435 501 36,000 333 Climbing FlightAware ADS-B
Thu 08:21:24 PM 41.7690 -90.8330 265° West 435 501 36,000  Level FlightAware ADS-B
Thu 08:22:01 PM 41.7620 -90.9320 265° West 433 498 36,000  Level FlightAware ADS-B
Thu 08:22:33 PM 41.7550 -91.0170 264° West 432 497 36,000  Level FlightAware ADS-B
Thu 08:23:15 PM 41.7470 -91.1260 264° West 429 494 36,000  Level FlightAware ADS-B
Thu 08:23:53 PM 41.7390 -91.2300 264° West 426 490 36,000  Level FlightAware ADS-B
Thu 08:24:25 PM 41.7330 -91.3140 265° West 426 490 36,000  Level FlightAware ADS-B
Thu 08:25:01 PM 41.7270 -91.4060 265° West 427 491 36,000  Level FlightAware ADS-B
Thu 08:25:38 PM 41.7200 -91.5000 264° West 427 491 36,000  Level FlightAware ADS-B
Thu 08:26:13 PM 41.7120 -91.5940 264° West 427 491 36,000  Level FlightAware ADS-B
Thu 08:26:45 PM 41.7060 -91.6770 264° West 427 491 36,000  Level FlightAware ADS-B
Thu 08:27:21 PM 41.6980 -91.7730 264° West 428 493 36,000  Level FlightAware ADS-B
Thu 08:27:57 PM 41.6910 -91.8680 264° West 429 494 36,000  Level FlightAware ADS-B
Thu 08:28:31 PM 41.6830 -91.9590 263° West 430 495 36,000  Level FlightAware ADS-B
Thu 08:29:07 PM 41.6760 -92.0530 264° West 431 496 36,000  Level FlightAware ADS-B
Thu 08:29:43 PM 41.6680 -92.1500 264° West 431 496 36,000  Level FlightAware ADS-B
Thu 08:30:15 PM 41.6610 -92.2340 264° West 431 496 36,000  Level FlightAware ADS-B
Thu 08:30:51 PM 41.6530 -92.3280 264° West 431 496 36,000  Level FlightAware ADS-B
Thu 08:31:27 PM 41.6450 -92.4240 264° West 429 494 36,000  Level FlightAware ADS-B
Thu 08:32:03 PM 41.6370 -92.5200 264° West 424 488 36,000  Level FlightAware ADS-B
Thu 08:32:37 PM 41.6290 -92.6050 263° West 421 484 36,000  Level FlightAware ADS-B
Thu 08:33:13 PM 41.6210 -92.6980 263° West 420 483 36,000  Level FlightAware ADS-B
Thu 08:33:45 PM 41.6140 -92.7820 264° West 419 482 36,000  Level FlightAware ADS-B
Thu 08:34:21 PM 41.6060 -92.8740 263° West 418 481 36,000  Level FlightAware ADS-B
Thu 08:34:57 PM 41.5980 -92.9670 263° West 416 479 36,000  Level FlightAware ADS-B
Thu 08:35:37 PM 41.5884 -93.0689 263° West 417 480 36,000  Level FlightAware ADS-B
Thu 08:36:08 PM 41.5813 -93.1467 263° West 415 478 36,000  Level FlightAware ADS-B
Thu 08:36:39 PM 41.5740 -93.2253 263° West 415 478 36,000  Level FlightAware ADS-B
Thu 08:37:09 PM 41.5668 -93.3025 263° West 415 478 36,000  Level FlightAware ADS-B
Thu 08:37:40 PM 41.5595 -93.3814 263° West 416 479 36,000  Level FlightAware ADS-B
Thu 08:38:15 PM 41.5513 -93.4685 263° West 416 479 36,000  Level FlightAware ADS-B
Thu 08:38:45 PM 41.5442 -93.5447 263° West 416 479 36,000  Level FlightAware ADS-B
Thu 08:39:15 PM 41.5369 -93.6217 263° West 416 479 36,000  Level FlightAware ADS-B
Thu 08:39:46 PM 41.5294 -93.6998 263° West 415 478 36,000  Level FlightAware ADS-B
Thu 08:40:16 PM 41.5219 -93.7764 263° West 415 478 36,000  Level FlightAware ADS-B
Thu 08:40:46 PM 41.5145 -93.8528 263° West 414 476 36,000  Level FlightAware ADS-B
Thu 08:41:17 PM 41.5068 -93.9319 263° West 415 478 36,000  Level FlightAware ADS-B
Thu 08:41:48 PM 41.4993 -94.0081 263° West 414 476 36,000  Level FlightAware ADS-B
Thu 08:42:18 PM 41.4911 -94.0850 262° West 414 476 36,000  Level FlightAware ADS-B
Thu 08:42:48 PM 41.4826 -94.1604 261° West 414 476 36,000  Level FlightAware ADS-B
Thu 08:43:18 PM 41.4742 -94.2367 262° West 414 476 36,000  Level FlightAware ADS-B
Thu 08:43:49 PM 41.4659 -94.3138 262° West 414 476 36,000  Level FlightAware ADS-B
Thu 08:44:19 PM 41.4576 -94.3900 262° West 415 478 36,000  Level FlightAware ADS-B
Thu 08:44:50 PM 41.4490 -94.4683 262° West 416 479 36,000  Level FlightAware ADS-B
Thu 08:45:20 PM 41.4405 -94.5444 262° West 416 479 36,000  Level FlightAware ADS-B
Thu 08:45:51 PM 41.4319 -94.6209 261° West 418 481 36,000  Level FlightAware ADS-B
Thu 08:46:21 PM 41.4232 -94.6974 261° West 419 482 36,000  Level FlightAware ADS-B
Thu 08:46:51 PM 41.4144 -94.7753 261° West 422 486 36,000  Level FlightAware ADS-B
Thu 08:47:21 PM 41.4056 -94.8528 261° West 424 488 36,000  Level FlightAware ADS-B
Thu 08:47:52 PM 41.3966 -94.9309 261° West 426 490 36,000  Level FlightAware ADS-B
Thu 08:48:22 PM 41.3876 -95.0088 261° West 428 493 36,000  Level FlightAware ADS-B
Thu 08:48:52 PM 41.3785 -95.0874 261° West 430 495 36,000  Level FlightAware ADS-B
Thu 08:49:22 PM 41.3692 -95.1665 261° West 431 496 36,000  Level FlightAware ADS-B
Thu 08:49:53 PM 41.3598 -95.2458 261° West 432 497 36,000  Level FlightAware ADS-B
Thu 08:50:23 PM 41.3504 -95.3254 261° West 432 497 36,000  Level FlightAware ADS-B
Thu 08:50:53 PM 41.3409 -95.4049 261° West 431 496 36,000  Level FlightAware ADS-B
Thu 08:51:24 PM 41.3314 -95.4844 261° West 431 496 36,000  Level FlightAware ADS-B
Thu 08:51:54 PM 41.3220 -95.5631 261° West 430 495 36,000  Level FlightAware ADS-B
Thu 08:52:24 PM 41.3124 -95.6422 261° West 431 496 36,000  Level FlightAware ADS-B
Thu 08:52:54 PM 41.3028 -95.7211 261° West 431 496 36,000  Level FlightAware ADS-B
Thu 08:53:25 PM 41.2931 -95.7998 261° West 438 504 36,000  Level FlightAware ADS-B
Thu 08:53:55 PM 41.2829 -95.8824 261° West 444 511 36,000  Level FlightAware ADS-B
Thu 08:54:27 PM 41.2723 -95.9671 261° West 445 512 36,000  Level FlightAware ADS-B
Thu 08:54:58 PM 41.2619 -96.0499 261° West 446 513 36,000 462 Level FlightAware ADS-B
Thu 08:55:32 PM 41.2502 -96.1431 261° West 443 510 36,500 1,164 Climbing FlightAware ADS-B
Thu 08:56:05 PM 41.2394 -96.2281 260° West 431 496 37,300 1,385 Climbing FlightAware ADS-B
Thu 08:56:37 PM 41.2289 -96.3110 260° West 424 488 38,000 677 Climbing FlightAware ADS-B
Thu 08:57:07 PM 41.2191 -96.3892 261° West 428 493 38,000  Level FlightAware ADS-B
Thu 08:57:38 PM 41.2091 -96.4686 261° West 429 494 38,000  Level FlightAware ADS-B
Thu 08:58:09 PM 41.1985 -96.5482 260° West 428 493 38,000  Level FlightAware ADS-B
Thu 08:58:39 PM 41.1882 -96.6260 260° West 428 493 38,000  Level FlightAware ADS-B
Thu 08:59:09 PM 41.1781 -96.7033 260° West 427 491 38,000  Level FlightAware ADS-B
Thu 08:59:40 PM 41.1673 -96.7842 260° West 425 489 38,000  Level FlightAware ADS-B
Thu 09:00:10 PM 41.1570 -96.8615 260° West 425 489 38,000  Level FlightAware ADS-B
Thu 09:00:40 PM 41.1468 -96.9386 260° West 426 490 38,000  Level FlightAware ADS-B
Thu 09:01:11 PM 41.1364 -97.0173 260° West 427 491 38,000  Level FlightAware ADS-B
Thu 09:01:41 PM 41.1259 -97.0954 260° West 428 493 38,000  Level FlightAware ADS-B
Thu 09:02:13 PM 41.1150 -97.1759 260° West 430 495 38,000  Level FlightAware ADS-B
Thu 09:02:43 PM 41.1041 -97.2559 260° West 431 496 38,000  Level FlightAware ADS-B
Thu 09:03:14 PM 41.0934 -97.3340 260° West 432 497 38,000  Level FlightAware ADS-B
Thu 09:03:44 PM 41.0825 -97.4133 260° West 431 496 38,000  Level FlightAware ADS-B
Thu 09:04:15 PM 41.0716 -97.4921 260° West 431 496 38,000  Level FlightAware ADS-B
Thu 09:04:45 PM 41.0608 -97.5698 260° West 431 496 38,000  Level FlightAware ADS-B
Thu 09:05:15 PM 41.0498 -97.6485 260° West 432 497 38,000  Level FlightAware ADS-B
Thu 09:05:46 PM 41.0386 -97.7287 260° West 432 497 38,000  Level FlightAware ADS-B
Thu 09:06:16 PM 41.0274 -97.8077 259° West 431 496 38,000  Level FlightAware ADS-B
Thu 09:06:46 PM 41.0164 -97.8852 259° West 430 495 38,000  Level FlightAware ADS-B
Thu 09:07:22 PM 41.0033 -97.9767 259° West 430 495 38,000  Level FlightAware ADS-B
Thu 09:07:33 PM 40.9993 -98.0058 260° West 428 493 38,000  Level FlightAware ADS-B
Thu 09:08:04 PM 40.9908 -98.0858 262° West 426 490 38,000  Level FlightAware ADS-B
Thu 09:08:34 PM 40.9824 -98.1636 262° West 427 491 38,000  Level FlightAware ADS-B
Thu 09:09:05 PM 40.9737 -98.2440 262° West 429 494 38,000  Level FlightAware ADS-B
Thu 09:09:36 PM 40.9651 -98.3223 262° West 429 494 38,000  Level FlightAware ADS-B
Thu 09:10:06 PM 40.9563 -98.4019 262° West 427 491 38,000  Level FlightAware ADS-B
Thu 09:10:37 PM 40.9476 -98.4803 262° West 428 493 38,000  Level FlightAware ADS-B
Thu 09:11:22 PM 40.9350 -98.5900 261° West 429 494 38,000  Level FlightAware ADS-B
Thu 09:11:46 PM 40.9276 -98.6589 262° West 429 494 38,000  Level FlightAware ADS-B
Thu 09:12:20 PM 40.9174 -98.7487 261° West 434 499 38,000  Level FlightAware ADS-B
Thu 09:12:50 PM 40.9083 -98.8277 261° West 435 501 38,000  Level FlightAware ADS-B
Thu 09:13:20 PM 40.8994 -98.9066 262° West 436 502 38,000  Level FlightAware ADS-B
Thu 09:13:51 PM 40.8902 -98.9872 261° West 436 502 38,000  Level FlightAware ADS-B
Thu 09:14:32 PM 40.8790 -99.0820 261° West 436 502 38,000  Level FlightAware ADS-B
Thu 09:15:04 PM 40.8679 -99.1781 261° West 437 503 38,000  Level FlightAware ADS-B
Thu 09:15:34 PM 40.8584 -99.2570 261° West 437 503 38,000  Level FlightAware ADS-B
Thu 09:16:19 PM 40.8442 -99.3763 261° West 437 503 38,000  Level FlightAware ADS-B
Thu 09:16:49 PM 40.8347 -99.4558 261° West 437 503 38,000  Level FlightAware ADS-B
Thu 09:17:37 PM 40.8270 -99.5190 261° West 437 503 38,000  Level FlightAware ADS-B
Thu 09:18:13 PM 40.8170 -99.6000 261° West 437 503 38,000  Level FlightAware ADS-B
Thu 09:18:49 PM 40.8080 -99.6810 262° West 437 503 38,000  Level FlightAware ADS-B
Thu 09:19:25 PM 40.7980 -99.7620 261° West 437 503 38,000  Level FlightAware ADS-B
Thu 09:20:01 PM 40.7880 -99.8420 261° West 437 503 38,000  Level FlightAware ADS-B
Thu 09:20:37 PM 40.7790 -99.9230 262° West 437 503 38,000  Level FlightAware ADS-B
Thu 09:20:59 PM 40.7552 -100.1030 260° West 427 491 38,000  Level FlightAware ADS-B
Thu 09:21:46 PM 40.7403 -100.2210 261° West 424 488 38,000  Level FlightAware ADS-B
Thu 09:22:25 PM 40.7490 -100.1650 78° East 437 503 38,000  Level FlightAware ADS-B
Thu 09:23:01 PM 40.7400 -100.2460 262° West 437 503 38,000  Level FlightAware ADS-B
Thu 09:23:37 PM 40.7300 -100.3260 261° West 437 503 38,000  Level FlightAware ADS-B
Thu 09:24:13 PM 40.7200 -100.4070 261° West 437 503 38,000  Level FlightAware ADS-B
Thu 09:24:49 PM 40.7110 -100.4880 262° West 437 503 38,000  Level FlightAware ADS-B
Thu 09:25:38 PM 40.6636 -100.7906 262° West 429 494 38,000  Level Denver Center
Thu 09:31:23 PM 40.5930 -101.6910 262° West 428 493 38,000  Level FlightAware ADS-B
Thu 09:31:59 PM 40.5940 -101.7850 271° West 429 494 38,000  Level FlightAware ADS-B
Thu 09:32:36 PM 40.5950 -101.8800 271° West 431 496 38,000  Level FlightAware ADS-B
Thu 09:33:09 PM 40.5960 -101.9670 271° West 432 497 38,000  Level FlightAware ADS-B
Thu 09:33:45 PM 40.5970 -102.0580 271° West 433 498 38,000  Level FlightAware ADS-B
Thu 09:34:19 PM 40.5980 -102.1510 271° West 434 499 38,000  Level FlightAware ADS-B
Thu 09:34:55 PM 40.5980 -102.2440 270° West 435 501 38,000  Level FlightAware ADS-B
Thu 09:35:31 PM 40.6010 -102.3410 272° West 432 497 38,000  Level FlightAware ADS-B
Thu 09:36:04 PM 40.6110 -102.4240 279° West 433 498 38,000  Level FlightAware ADS-B
Thu 09:36:41 PM 40.6230 -102.5220 279° West 430 495 38,000  Level FlightAware ADS-B
Thu 09:37:13 PM 40.6320 -102.6060 278° West 427 491 38,000  Level FlightAware ADS-B
Thu 09:37:49 PM 40.6430 -102.6950 279° West 428 493 38,000  Level FlightAware ADS-B
Thu 09:38:25 PM 40.6540 -102.7900 279° West 428 493 38,000  Level FlightAware ADS-B
Thu 09:39:02 PM 40.6660 -102.8830 280° West 429 494 38,000  Level FlightAware ADS-B
Thu 09:39:33 PM 40.6770 -102.9620 280° West 429 494 38,000  Level FlightAware ADS-B
Thu 09:40:09 PM 40.6920 -103.0570 282° West 430 495 38,000  Level FlightAware ADS-B
Thu 09:40:45 PM 40.7060 -103.1490 281° West 429 494 38,000  Level FlightAware ADS-B
Thu 09:41:17 PM 40.7170 -103.2290 280° West 430 495 38,000  Level FlightAware ADS-B
Thu 09:41:53 PM 40.7300 -103.3220 280° West 431 496 38,000  Level FlightAware ADS-B
Thu 09:42:29 PM 40.7390 -103.4160 277° West 432 497 38,000  Level FlightAware ADS-B
Thu 09:43:05 PM 40.7470 -103.5100 276° West 430 495 38,000  Level FlightAware ADS-B
Thu 09:43:41 PM 40.7560 -103.6030 277° West 430 495 38,000  Level FlightAware ADS-B
Thu 09:44:13 PM 40.7640 -103.6860 277° West 428 493 38,000  Level FlightAware ADS-B
Thu 09:44:49 PM 40.7770 -103.7790 280° West 429 494 38,000  Level FlightAware ADS-B
Thu 09:45:25 PM 40.7890 -103.8720 280° West 429 494 38,000  Level FlightAware ADS-B
Thu 09:46:01 PM 40.7950 -103.9640 275° West 429 494 38,000  Level FlightAware ADS-B
Thu 09:46:28 PM 40.7960 -104.0340 271° West 430 495 38,000  Level FlightAware ADS-B
Thu 09:47:11 PM 40.7960 -104.1470 270° West 430 495 38,000  Level FlightAware ADS-B
Thu 09:47:44 PM 40.7950 -104.2320 269° West 430 495 38,000  Level FlightAware ADS-B
Thu 09:48:20 PM 40.7900 -104.3260 266° West 428 493 38,000  Level FlightAware ADS-B
Thu 09:48:56 PM 40.7810 -104.4190 263° West 427 491 38,000  Level FlightAware ADS-B
Thu 09:49:25 PM 40.7740 -104.4920 263° West 427 491 38,000  Level FlightAware ADS-B
Thu 09:50:05 PM 40.7590 -104.5930 259° West 428 493 38,000  Level FlightAware ADS-B
Thu 09:50:40 PM 40.7280 -104.6790 245° Southwest 430 495 38,000  Level FlightAware ADS-B
Thu 09:51:17 PM 40.6930 -104.7620 241° Southwest 430 495 38,000  Level FlightAware ADS-B
Thu 09:51:50 PM 40.6610 -104.8390 241° Southwest 430 495 38,000  Level FlightAware ADS-B
Thu 09:52:27 PM 40.6280 -104.9200 242° Southwest 430 495 38,000  Level FlightAware ADS-B
Thu 09:53:03 PM 40.5930 -105.0040 241° Southwest 431 496 38,000  Level FlightAware ADS-B
Thu 09:53:34 PM 40.5630 -105.0790 242° Southwest 432 497 38,000  Level FlightAware ADS-B
Thu 09:54:11 PM 40.5290 -105.1660 243° Southwest 432 497 38,000  Level FlightAware ADS-B
Thu 09:54:47 PM 40.4950 -105.2500 242° Southwest 433 498 38,000  Level FlightAware ADS-B
Thu 09:55:21 PM 40.4640 -105.3290 243° Southwest 434 499 38,000  Level FlightAware ADS-B
Thu 09:55:57 PM 40.4320 -105.4090 242° Southwest 435 501 38,000  Level FlightAware ADS-B
Thu 09:56:31 PM 40.4010 -105.4940 244° Southwest 436 502 38,000  Level FlightAware ADS-B
Thu 09:57:04 PM 40.3780 -105.5750 250° West 436 502 38,000  Level FlightAware ADS-B
Thu 09:57:39 PM 40.3550 -105.6620 251° West 436 502 38,000  Level FlightAware ADS-B
Thu 09:58:18 PM 40.3350 -105.7600 255° West 437 503 38,000  Level FlightAware ADS-B
Thu 09:58:49 PM 40.3200 -105.8360 256° West 437 503 38,000  Level FlightAware ADS-B
Thu 09:59:21 PM 40.3050 -105.9160 256° West 435 501 38,000  Level FlightAware ADS-B
Thu 09:59:59 PM 40.2900 -106.0210 259° West 436 502 38,000  Level FlightAware ADS-B
Thu 10:00:35 PM 40.2930 -106.1130 272° West 437 503 38,000  Level FlightAware ADS-B
Thu 10:01:11 PM 40.3010 -106.2110 276° West 437 503 38,000  Level FlightAware ADS-B
Thu 10:01:47 PM 40.3100 -106.3070 277° West 438 504 38,000  Level FlightAware ADS-B
Thu 10:02:23 PM 40.3090 -106.3990 269° West 436 502 38,000  Level FlightAware ADS-B
Thu 10:02:55 PM 40.3050 -106.4840 266° West 437 503 38,000  Level FlightAware ADS-B
Thu 10:03:31 PM 40.3020 -106.5790 268° West 438 504 38,000  Level FlightAware ADS-B
Thu 10:04:08 PM 40.2980 -106.6760 267° West 438 504 38,000  Level FlightAware ADS-B
Thu 10:04:41 PM 40.2950 -106.7520 267° West 438 504 38,000  Level FlightAware ADS-B
Thu 10:05:17 PM 40.2920 -106.8330 267° West 438 504 38,000  Level FlightAware ADS-B
Thu 10:05:53 PM 40.2890 -106.9140 267° West 438 504 38,000  Level FlightAware ADS-B
Thu 10:06:29 PM 40.2850 -106.9950 266° West 438 504 38,000  Level FlightAware ADS-B
Thu 10:07:05 PM 40.2820 -107.0760 267° West 438 504 38,000  Level FlightAware ADS-B
Thu 10:07:41 PM 40.2790 -107.1580 267° West 438 504 38,000  Level FlightAware ADS-B
Thu 10:08:17 PM 40.2760 -107.2390 267° West 438 504 38,000  Level FlightAware ADS-B
Thu 10:08:54 PM 40.2720 -107.3220 266° West 438 504 38,000  Level FlightAware ADS-B
Thu 10:09:30 PM 40.2690 -107.4030 267° West 438 504 38,000  Level FlightAware ADS-B
Thu 10:10:06 PM 40.2660 -107.4840 267° West 438 504 38,000  Level FlightAware ADS-B
Thu 10:10:42 PM 40.2630 -107.5660 267° West 438 504 38,000  Level FlightAware ADS-B
Thu 10:11:18 PM 40.2590 -107.6470 266° West 438 504 38,000  Level FlightAware ADS-B
Thu 10:11:52 PM 40.2560 -107.7230 267° West 438 504 38,000  Level FlightAware ADS-B
Thu 10:12:38 PM 40.2520 -107.8270 267° West 438 504 38,000  Level FlightAware ADS-B
Thu 10:13:14 PM 40.2490 -107.9080 267° West 438 504 38,000  Level FlightAware ADS-B
Thu 10:13:50 PM 40.2460 -107.9890 267° West 438 504 38,000  Level FlightAware ADS-B
Thu 10:15:00 PM 40.4133 -108.4136 267° West 435 501 38,000  Level Denver Center
Thu 10:16:01 PM 40.4253 -108.5647 276° West 435 501 38,000  Level Denver Center
Thu 10:17:03 PM 40.4392 -108.7436 276° West 440 506 38,000  Level Denver Center
Thu 10:18:05 PM 40.4503 -108.8947 276° West 438 504 38,000  Level Denver Center
Thu 10:19:06 PM 40.4636 -109.0700 276° West 434 499 38,000  Level Denver Center
Thu 10:20:08 PM 40.4756 -109.2192 276° West 431 496 38,000  Level Denver Center
Thu 10:25:39 PM 40.5378 -110.0910 276° West 433 498 38,000  Level FlightAware ADS-B
Thu 10:26:01 PM 40.5395 -110.1260 274° West 430 495 38,000  Level FlightAware ADS-B
Thu 10:26:08 PM 40.5395 -110.1360 270° West 430 495 38,000  Level FlightAware ADS-B
Thu 10:26:39 PM 40.5379 -110.2440 269° West 429 494 38,000  Level FlightAware ADS-B
Thu 10:26:58 PM 40.5372 -110.2950 269° West 428 493 38,000  Level FlightAware ADS-B
Thu 10:27:33 PM 40.5361 -110.3660 269° West 427 491 38,000  Level FlightAware ADS-B
Thu 10:28:03 PM 40.5346 -110.4650 269° West 426 490 38,000  Level FlightAware ADS-B
Thu 10:28:38 PM 40.5330 -110.5620 269° West 427 491 38,000  Level FlightAware ADS-B
Thu 10:28:48 PM 40.5336 -110.5310 89° East 426 490 38,000  Level FlightAware ADS-B
Thu 10:29:18 PM 40.5315 -110.6580 269° West 427 491 38,000  Level FlightAware ADS-B
Thu 10:29:57 PM 40.5307 -110.7080 269° West 428 493 38,000  Level FlightAware ADS-B
Thu 10:30:16 PM 40.5304 -110.7240 269° West 428 493 38,000  Level FlightAware ADS-B
Thu 10:30:50 PM 40.5276 -110.8760 269° West 430 495 38,000  Level FlightAware ADS-B
Thu 10:31:20 PM 40.5257 -110.9780 269° West 429 494 38,000  Level FlightAware ADS-B
Thu 10:31:51 PM 40.5245 -111.0330 268° West 428 493 38,000  Level FlightAware ADS-B
Thu 10:31:59 PM 40.5236 -111.0800 269° West 428 493 38,000  Level FlightAware ADS-B
Thu 10:32:24 PM 40.5227 -111.1270 269° West 426 490 38,000  Level FlightAware ADS-B
Thu 10:32:55 PM 40.5206 -111.2230 268° West 425 489 38,000  Level FlightAware ADS-B
Thu 10:33:26 PM 40.5189 -111.2990 268° West 424 488 38,000  Level FlightAware ADS-B
Thu 10:33:59 PM 40.5180 -111.3340 268° West 424 488 38,000  Level FlightAware ADS-B
Thu 10:34:18 PM 40.5163 -111.4050 268° West 424 488 38,000  Level FlightAware ADS-B
Thu 10:34:50 PM 40.5141 -111.4960 268° West 424 488 38,000  Level FlightAware ADS-B
Thu 10:35:20 PM 40.5118 -111.5970 268° West 429 494 38,000  Level FlightAware ADS-B
Thu 10:35:45 PM 40.5107 -111.6400 268° West 433 498 38,000  Level FlightAware ADS-B
Thu 10:36:15 PM 40.5083 -111.7370 268° West 434 499 38,000  Level FlightAware ADS-B
Thu 10:36:27 PM 40.5079 -111.7500 268° West 433 498 38,000  Level FlightAware ADS-B
Thu 10:36:57 PM 40.5053 -111.8460 268° West 430 495 38,000  Level FlightAware ADS-B
Thu 10:37:08 PM 40.5050 -111.8590 268° West 430 495 38,000  Level FlightAware ADS-B
Thu 10:37:38 PM 40.5022 -111.9550 268° West 430 495 38,000  Level FlightAware ADS-B
Thu 10:38:04 PM 40.5007 -112.0040 268° West 429 494 38,000  Level FlightAware ADS-B
Thu 10:38:34 PM 40.4979 -112.1030 268° West 428 493 38,000  Level FlightAware ADS-B
Thu 10:39:06 PM 40.4960 -112.1660 268° West 429 494 38,000  Level FlightAware ADS-B
Thu 10:39:25 PM 40.4941 -112.2300 268° West 428 493 38,000  Level FlightAware ADS-B
Thu 10:40:05 PM 40.4926 -112.2810 268° West 428 493 38,000  Level FlightAware ADS-B
Thu 10:40:45 PM 40.4919 -112.3040 268° West 427 491 38,000  Level FlightAware ADS-B
Thu 10:41:05 PM 40.4913 -112.3260 268° West 427 491 38,000  Level FlightAware ADS-B
Thu 10:41:37 PM 40.4832 -112.5720 268° West 424 488 38,000  Level FlightAware ADS-B
Thu 10:42:09 PM 40.4817 -112.6180 268° West 424 488 38,000  Level FlightAware ADS-B
Thu 10:42:42 PM 40.4781 -112.7200 267° West 428 493 38,000  Level FlightAware ADS-B
Thu 10:43:15 PM 40.4744 -112.8280 267° West 429 494 38,000  Level FlightAware ADS-B
Thu 10:43:47 PM 40.4723 -112.8880 267° West 430 495 38,000  Level FlightAware ADS-B
Thu 10:44:10 PM 40.4703 -112.9430 267° West 430 495 38,000  Level FlightAware ADS-B
Thu 10:44:45 PM 40.4668 -113.0360 267° West 428 493 38,000  Level FlightAware ADS-B
Thu 10:45:15 PM 40.4628 -113.1400 267° West 431 496 38,000  Level FlightAware ADS-B
Thu 10:45:45 PM 40.4606 -113.1960 267° West 432 497 38,000  Level FlightAware ADS-B
Thu 10:46:30 PM 40.4551 -113.3340 267° West 431 496 38,000  Level FlightAware ADS-B
Thu 10:47:03 PM 40.4527 -113.3970 267° West 430 495 38,000  Level FlightAware ADS-B
Thu 10:47:37 PM 40.4518 -113.4180 267° West 430 495 38,000  Level FlightAware ADS-B
Thu 10:48:18 PM 40.4458 -113.5620 267° West 427 491 38,000  Level FlightAware ADS-B
Thu 10:48:49 PM 40.4452 -113.5750 267° West 426 490 38,000  Level FlightAware ADS-B
Thu 10:49:21 PM 40.4376 -113.7520 267° West 423 487 38,000  Level FlightAware ADS-B
Thu 10:49:54 PM 40.4330 -113.8570 267° West 423 487 38,000  Level FlightAware ADS-B
Thu 10:50:07 PM 40.4324 -113.8710 267° West 423 487 38,000  Level FlightAware ADS-B
Thu 10:50:38 PM 40.4279 -113.9690 267° West 421 484 38,000  Level FlightAware ADS-B
Thu 10:51:08 PM 40.4240 -114.0530 267° West 421 484 38,000  Level FlightAware ADS-B
Thu 10:51:39 PM 40.4206 -114.1260 267° West 420 483 38,000  Level FlightAware ADS-B
Thu 10:52:18 PM 40.4160 -114.1500 256° West 424 488 38,000  Level FlightAware ADS-B
Thu 10:52:35 PM 40.4139 -114.2690 269° West 418 481 38,000  Level FlightAware ADS-B
Thu 10:53:07 PM 40.4110 -114.3260 266° West 419 482 38,000  Level FlightAware ADS-B
Thu 10:53:32 PM 40.4072 -114.4010 266° West 419 482 38,000  Level FlightAware ADS-B
Thu 10:54:07 PM 40.4033 -114.4820 266° West 419 482 38,000  Level FlightAware ADS-B
Thu 10:54:27 PM 40.4018 -114.5120 266° West 419 482 38,000  Level FlightAware ADS-B
Thu 10:55:18 PM 40.3950 -114.5430 254° West 424 488 38,000  Level FlightAware ADS-B
Thu 10:55:54 PM 40.3900 -114.6220 265° West 424 488 38,000  Level FlightAware ADS-B
Thu 10:56:30 PM 40.3860 -114.7000 266° West 424 488 38,000  Level FlightAware ADS-B
Thu 10:57:06 PM 40.3820 -114.7790 266° West 424 488 38,000  Level FlightAware ADS-B
Thu 10:57:23 PM 40.3773 -114.9820 268° West 38,000  Level FlightAware ADS-B
Thu 10:57:44 PM 40.3765 -114.9970 266° West 420 483 38,000  Level FlightAware ADS-B
Thu 10:58:17 PM 40.3702 -115.1110 266° West 423 487 38,000  Level FlightAware ADS-B
Thu 10:58:39 PM 40.3680 -115.1530 266° West 423 487 38,000  Level FlightAware ADS-B
Thu 10:59:13 PM 40.3612 -115.2720 266° West 421 484 38,000  Level FlightAware ADS-B
Thu 10:59:46 PM 40.3561 -115.3590 266° West 423 487 38,000  Level FlightAware ADS-B
Thu 11:00:18 PM 40.3512 -115.4430 266° West 423 487 38,000  Level FlightAware ADS-B
Thu 11:02:30 PM 40.3348 -115.7220 266° West 423 487 38,000  Level FlightAware ADS-B
Thu 11:03:20 PM 40.3267 -115.8520 265° West 417 480 38,000  Level FlightAware ADS-B
Thu 11:04:32 PM 40.3122 -116.0700 265° West 415 478 38,000  Level Salt Lake Center
Thu 11:05:33 PM 40.3031 -116.2133 265° West 413 475 38,000  Level Salt Lake Center
Thu 11:06:34 PM 40.2922 -116.3803 265° West 412 474 38,000  Level Salt Lake Center
Thu 11:07:36 PM 40.2822 -116.5244 265° West 411 473 38,000  Level Salt Lake Center
Thu 11:08:37 PM 40.2711 -116.6692 264° West 414 476 38,000  Level Salt Lake Center
Thu 11:09:38 PM 40.2589 -116.8425 265° West 419 482 38,000  Level Salt Lake Center
Thu 11:10:40 PM 40.2492 -116.9922 265° West 423 487 38,000  Level Salt Lake Center
Thu 11:11:41 PM 40.2383 -117.1397 265° West 422 486 38,000  Level Salt Lake Center
Thu 11:12:43 PM 40.2261 -117.3094 265° West 419 482 38,000  Level Salt Lake Center
Thu 11:13:44 PM 40.2150 -117.4542 264° West 418 481 38,000  Level Salt Lake Center
Thu 11:14:45 PM 40.2039 -117.5994 264° West 419 482 38,000  Level Salt Lake Center
Thu 11:15:47 PM 40.1917 -117.7667 265° West 415 478 38,000  Level Salt Lake Center
Thu 11:16:48 PM 40.1814 -117.9108 265° West 415 478 38,000 -1,871 Level Salt Lake Center
Thu 11:22:15 PM 40.0950 -118.7350 265° West 385 443 25,900 -2,223 Descending FlightAware ADS-B
Thu 11:22:47 PM 40.0820 -118.8050 256° West 377 434 24,700 -2,206 Descending FlightAware ADS-B
Thu 11:23:23 PM 40.0660 -118.8830 255° West 370 426 23,400 -2,083 Descending FlightAware ADS-B
Thu 11:23:59 PM 40.0510 -118.9600 256° West 365 420 22,200 -2,029 Descending FlightAware ADS-B
Thu 11:24:31 PM 40.0380 -119.0290 256° West 367 422 21,100 -2,060 Descending FlightAware ADS-B
Thu 11:25:06 PM 40.0230 -119.1010 255° West 366 421 19,900 -2,229 Descending FlightAware ADS-B
Thu 11:25:41 PM 40.0090 -119.1760 256° West 363 418 18,500 -1,352 Descending FlightAware ADS-B
Thu 11:26:17 PM 39.9950 -119.2420 255° West 360 414 18,300 -167 Descending FlightAware ADS-B
Thu 11:26:53 PM 39.9820 -119.3060 255° West 360 414 18,300  Level FlightAware ADS-B
Thu 11:27:29 PM 39.9690 -119.3710 255° West 360 414 18,300 -3,943 Level FlightAware ADS-B
Thu 11:28:03 PM 39.9530 -119.4640 257° West 342 394 13,700 -5,057 Descending FlightAware ADS-B
Thu 11:28:39 PM 39.9410 -119.5360 258° West 328 377 12,400 -1,652 Descending FlightAware ADS-B
Thu 11:29:12 PM 39.9240 -119.5920 248° West 301 346 11,800 -1,324 Descending FlightAware ADS-B
Thu 11:29:47 PM 39.8950 -119.6400 232° Southwest 274 315 10,900 -1,500 Descending FlightAware ADS-B
Thu 11:30:24 PM 39.8660 -119.6830 229° Southwest 253 291 10,000 -1,158 Descending FlightAware ADS-B
Thu 11:30:44 PM 39.8500 -119.7050 227° Southwest 238 274 9,800 -414 Descending FlightAware ADS-B
Thu 11:30:53 PM 39.8420 -119.7110 210° Southwest 230 265 9,800 -1,241 Level FlightAware ADS-B
Thu 11:31:13 PM 39.8220 -119.7240 207° Southwest 221 254 9,200 -1,350 Descending FlightAware ADS-B
Thu 11:31:33 PM 39.8050 -119.7360 208° Southwest 217 250 8,900 -450 Descending FlightAware ADS-B
Thu 11:31:53 PM 39.7890 -119.7470 208° Southwest 197 227 8,900  Level FlightAware ADS-B
Thu 11:32:05 PM 39.7790 -119.7530 205° Southwest 191 220 8,900  Level FlightAware ADS-B
Thu 11:32:31 PM 39.7580 -119.7660 205° Southwest 188 216 8,900  Level FlightAware ADS-B
Thu 11:32:43 PM 39.7480 -119.7690 193° South 188 216 8,900 -375 Level FlightAware ADS-B
Thu 11:33:03 PM 39.7300 -119.7690 180° South 182 209 8,700 -682 Descending FlightAware ADS-B
Thu 11:33:27 PM 39.7110 -119.7690 180° South 173 199 8,400 -955 Descending FlightAware ADS-B
Thu 11:33:47 PM 39.6950 -119.7690 180° South 171 197 8,000 -1,135 Descending FlightAware ADS-B
Thu 11:34:04 PM 39.6820 -119.7690 180° South 171 197 7,700 -1,200 Descending FlightAware ADS-B
Thu 11:34:27 PM 39.6620 -119.7690 180° South 177 204 7,200 -1,067 Descending FlightAware ADS-B
Thu 11:34:49 PM 39.6460 -119.7690 180° South 164 189 6,900 -840 Descending FlightAware ADS-B
Thu 11:35:17 PM 39.6250 -119.7690 180° South 153 176 6,500 -894 Descending FlightAware ADS-B
Thu 11:35:36 PM 39.6120 -119.7690 180° South 154 177 6,200 -900 Descending FlightAware ADS-B
Thu 11:35:57 PM 39.5960 -119.7690 180° South 157 181 5,900 -857 Descending FlightAware ADS-B
Thu 11:36:11 PM 39.5870 -119.7690 180° South 158 182 5,700 -818 Descending FlightAware ADS-B
Thu 11:36:41 PM 39.5650 -119.7690 180° South 161 185 5,300 -818 Descending FlightAware ADS-B
Thu 11:36:55 PM 39.5530 -119.7690 180° South 164 189 5,100 -913 Descending FlightAware ADS-B
Thu 11:37:27 PM 39.5290 -119.7690 180° South 167 192 4,600 -800 Descending FlightAware ADS-B
Thu 11:37:55 PM 39.5080 -119.7690 180° South 164 189 4,300 667 Descending FlightAware ADS-B
Thu 11:38:21 PM 39.5560 -119.7690 360° North 164 189 5,200 2,077 Climbing FlightAware ADS-B

Login

Don't have an account? Register now (free) for customized features, flight alerts, and more!